createdAt,value
2019-03-23T00:02:51.245Z,3.09
2019-03-23T00:06:05.260Z,2.96
2019-03-23T00:09:19.455Z,2.79
2019-03-23T00:12:39.497Z,2.76
2019-03-23T00:15:53.492Z,2.84
2019-03-23T00:19:07.488Z,2.90
2019-03-23T00:22:21.477Z,2.89
2019-03-23T00:25:35.611Z,2.90
2019-03-23T00:28:50.040Z,2.88
2019-03-23T00:32:04.263Z,2.81
2019-03-23T00:35:18.276Z,2.74
2019-03-23T00:38:32.265Z,2.58
2019-03-23T00:41:46.264Z,2.69
2019-03-23T00:45:00.356Z,2.67
2019-03-23T00:48:14.478Z,2.64
2019-03-23T00:51:28.477Z,2.69
2019-03-23T00:54:42.747Z,2.65
2019-03-23T00:57:56.797Z,2.67
2019-03-23T01:01:11.131Z,2.74
2019-03-23T01:04:25.145Z,2.72
2019-03-23T01:07:39.364Z,2.70
2019-03-23T01:10:53.385Z,2.60
2019-03-23T01:14:07.710Z,2.58
2019-03-23T01:17:21.721Z,2.57
2019-03-23T01:20:36.327Z,2.60
2019-03-23T01:23:50.640Z,2.57
2019-03-23T01:27:04.850Z,2.53
2019-03-23T01:30:19.251Z,2.57
2019-03-23T01:33:33.545Z,2.52
2019-03-23T01:36:47.577Z,2.50
2019-03-23T01:40:01.895Z,2.49
2019-03-23T01:43:16.278Z,2.44
2019-03-23T01:46:30.298Z,2.42
2019-03-23T01:49:44.301Z,2.39
2019-03-23T01:52:58.423Z,2.31
2019-03-23T01:56:12.451Z,2.33
2019-03-23T01:59:26.732Z,2.27
2019-03-23T02:02:40.746Z,2.27
2019-03-23T02:05:54.794Z,2.14
2019-03-23T02:09:08.803Z,2.18
2019-03-23T02:12:23.370Z,2.18
2019-03-23T02:15:37.719Z,2.23
2019-03-23T02:18:51.992Z,2.26
2019-03-23T02:22:06.030Z,2.18
2019-03-23T02:25:20.841Z,2.13
2019-03-23T02:28:34.962Z,2.16
2019-03-23T02:31:49.212Z,2.18
2019-03-23T02:35:03.769Z,2.17
2019-03-23T02:38:17.834Z,2.07
2019-03-23T02:41:31.842Z,2.08
2019-03-23T02:44:45.831Z,2.15
2019-03-23T02:48:00.241Z,2.09
2019-03-23T02:51:14.263Z,2.07
2019-03-23T02:54:28.317Z,2.02
2019-03-23T02:57:42.345Z,1.91
2019-03-23T03:00:56.358Z,1.92
2019-03-23T03:04:10.359Z,1.93
2019-03-23T03:07:24.755Z,1.90
2019-03-23T03:10:39.837Z,1.87
2019-03-23T03:13:54.084Z,1.80
2019-03-23T03:17:08.423Z,1.81
2019-03-23T03:20:22.431Z,1.85
2019-03-23T03:23:36.765Z,1.85
2019-03-23T03:26:50.779Z,1.82
2019-03-23T03:30:05.417Z,1.79
2019-03-23T03:33:19.747Z,1.87
2019-03-23T03:36:34.155Z,1.79
2019-03-23T03:39:48.209Z,1.70
2019-03-23T03:43:02.717Z,1.71
2019-03-23T03:46:16.751Z,1.74
2019-03-23T03:49:30.777Z,1.53
2019-03-23T03:52:45.481Z,1.59
2019-03-23T03:55:59.588Z,1.68
2019-03-23T03:59:13.704Z,1.69
2019-03-23T04:02:27.820Z,1.70
2019-03-23T04:05:41.967Z,1.72
2019-03-23T04:08:56.002Z,1.75
2019-03-23T04:12:10.017Z,1.76
2019-03-23T04:15:24.011Z,1.78
2019-03-23T04:18:38.059Z,1.67
2019-03-23T04:21:52.199Z,1.61
2019-03-23T04:25:07.639Z,1.58
2019-03-23T04:28:21.646Z,1.58
2019-03-23T04:31:35.771Z,1.56
2019-03-23T04:34:49.811Z,1.49
2019-03-23T04:38:03.930Z,1.58
2019-03-23T04:41:18.394Z,1.50
2019-03-23T04:44:32.405Z,1.53
2019-03-23T04:47:46.426Z,1.46
2019-03-23T04:51:00.421Z,1.50
2019-03-23T04:54:14.446Z,1.51
2019-03-23T04:57:28.813Z,1.51
2019-03-23T05:00:42.916Z,1.54
2019-03-23T05:03:56.942Z,1.56
2019-03-23T05:07:11.393Z,1.55
2019-03-23T05:10:25.408Z,1.52
2019-03-23T05:13:39.825Z,1.55
2019-03-23T05:16:53.983Z,1.44
2019-03-23T05:20:09.093Z,1.42
2019-03-23T05:23:23.229Z,1.38
2019-03-23T05:26:37.227Z,1.34
2019-03-23T05:29:51.285Z,1.30
2019-03-23T05:33:05.696Z,1.36
2019-03-23T05:36:20.107Z,1.38
2019-03-23T05:39:34.106Z,1.43
2019-03-23T05:42:48.233Z,1.47
2019-03-23T05:46:02.444Z,1.51
2019-03-23T05:49:16.887Z,1.52
2019-03-23T05:52:30.896Z,1.55
2019-03-23T05:55:45.785Z,1.62
2019-03-23T05:59:00.121Z,1.67
2019-03-23T06:02:14.437Z,1.67
2019-03-23T06:05:28.883Z,1.66
2019-03-23T06:08:43.200Z,1.52
2019-03-23T06:11:57.327Z,1.60
2019-03-23T06:15:11.516Z,1.63
2019-03-23T06:18:25.786Z,1.69
2019-03-23T06:21:39.778Z,1.77
2019-03-23T06:24:53.805Z,1.82
2019-03-23T06:28:07.820Z,1.97
2019-03-23T06:31:21.827Z,2.07
2019-03-23T06:34:36.127Z,2.18
2019-03-23T06:37:50.278Z,2.11
2019-03-23T06:41:04.271Z,2.18
2019-03-23T06:44:18.523Z,2.30
2019-03-23T06:47:32.687Z,2.41
2019-03-23T06:50:46.738Z,2.53
2019-03-23T06:54:00.986Z,2.68
2019-03-23T06:57:15.302Z,2.82
2019-03-23T07:00:29.426Z,2.98
2019-03-23T07:03:43.421Z,3.12
2019-03-23T07:06:57.414Z,3.30
2019-03-23T07:10:12.375Z,3.51
2019-03-23T07:13:26.408Z,3.68
2019-03-23T07:16:42.152Z,3.86
2019-03-23T07:19:56.578Z,4.05
2019-03-23T07:23:10.600Z,4.26
2019-03-23T07:26:24.943Z,4.47
2019-03-23T07:29:39.771Z,4.72
2019-03-23T07:32:54.214Z,4.99
2019-03-23T07:36:08.248Z,5.25
2019-03-23T07:39:27.329Z,5.54
2019-03-23T07:42:38.638Z,5.79
2019-03-23T07:45:52.672Z,6.10
2019-03-23T07:49:06.705Z,6.39
2019-03-23T07:52:20.940Z,6.69
2019-03-23T07:55:35.340Z,7.00
2019-03-23T07:58:49.620Z,7.40
2019-03-23T08:02:04.106Z,7.77
2019-03-23T08:05:19.577Z,8.14
2019-03-23T08:08:33.607Z,8.44
2019-03-23T08:11:47.609Z,8.85
2019-03-23T08:15:01.973Z,9.25
2019-03-23T08:18:15.993Z,9.63
2019-03-23T08:21:30.020Z,10.44
2019-03-23T08:24:44.092Z,10.93
2019-03-23T08:27:58.083Z,11.46
2019-03-23T08:31:12.103Z,11.74
2019-03-23T08:34:26.109Z,12.14
2019-03-23T08:37:40.108Z,12.33
2019-03-23T08:40:54.107Z,12.48
2019-03-23T08:44:08.458Z,12.61
2019-03-23T08:47:22.466Z,12.88
2019-03-23T08:50:36.571Z,13.01
2019-03-23T08:53:50.832Z,13.15
2019-03-23T08:57:04.860Z,13.34
2019-03-23T09:00:19.100Z,13.52
2019-03-23T09:03:33.240Z,13.94
2019-03-23T09:06:47.650Z,14.09
2019-03-23T09:10:02.368Z,14.20
2019-03-23T09:13:16.371Z,14.47
2019-03-23T09:16:30.406Z,14.64
2019-03-23T09:19:44.841Z,14.59
2019-03-23T09:22:58.865Z,14.81
2019-03-23T09:26:13.789Z,14.97
2019-03-23T09:29:27.899Z,14.97
2019-03-23T09:32:42.037Z,15.33
2019-03-23T09:35:56.051Z,15.61
2019-03-23T09:39:10.323Z,15.81
2019-03-23T09:42:24.349Z,15.97
2019-03-23T09:45:39.033Z,16.22
2019-03-23T09:48:53.042Z,16.49
2019-03-23T09:52:07.290Z,16.56
2019-03-23T09:55:21.291Z,16.70
2019-03-23T09:58:35.317Z,16.93
2019-03-23T10:01:49.326Z,17.19
2019-03-23T10:05:04.633Z,17.30
2019-03-23T10:08:18.773Z,17.11
2019-03-23T10:11:32.823Z,17.41
2019-03-23T10:14:46.836Z,17.78
2019-03-23T10:18:01.733Z,18.06
2019-03-23T10:21:15.925Z,18.20
2019-03-23T10:24:30.217Z,18.67
2019-03-23T10:27:44.918Z,18.88
2019-03-23T10:30:58.925Z,18.58
2019-03-23T10:34:12.948Z,18.45
2019-03-23T10:37:27.079Z,18.80
2019-03-23T10:40:42.903Z,18.97
2019-03-23T10:43:57.077Z,19.15
2019-03-23T10:47:11.514Z,19.12
2019-03-23T10:50:25.876Z,19.26
2019-03-23T10:53:40.252Z,19.60
2019-03-23T10:56:54.391Z,19.63
2019-03-23T11:00:09.704Z,19.98
2019-03-23T11:03:23.731Z,20.01
2019-03-23T11:06:38.001Z,19.90
2019-03-23T11:09:52.058Z,20.51
2019-03-23T11:13:06.096Z,20.92
2019-03-23T11:16:20.119Z,21.42
2019-03-23T11:19:34.138Z,20.65
2019-03-23T11:22:48.371Z,19.76
2019-03-23T11:26:02.502Z,19.75
2019-03-23T11:29:16.518Z,20.53
2019-03-23T11:32:30.544Z,21.18
2019-03-23T11:35:44.567Z,21.17
2019-03-23T11:38:58.851Z,21.74
2019-03-23T11:42:13.226Z,21.36
2019-03-23T11:45:27.525Z,21.00
2019-03-23T11:48:41.545Z,21.01
2019-03-23T11:51:56.206Z,20.78
2019-03-23T11:55:10.457Z,21.37
2019-03-23T11:58:24.799Z,21.43
2019-03-23T12:01:38.849Z,21.73
2019-03-23T12:04:52.904Z,21.02
2019-03-23T12:08:07.200Z,21.47
2019-03-23T12:11:21.761Z,21.76
2019-03-23T12:14:35.827Z,21.71
2019-03-23T12:17:49.838Z,22.16
2019-03-23T12:21:04.142Z,22.53
2019-03-23T12:24:18.202Z,22.92
2019-03-23T12:27:32.227Z,23.47
2019-03-23T12:30:46.935Z,22.76
2019-03-23T12:34:00.975Z,21.74
2019-03-23T12:37:15.010Z,21.51
2019-03-23T12:40:29.040Z,21.73
2019-03-23T12:43:43.654Z,21.28
2019-03-23T12:46:57.705Z,21.89
2019-03-23T12:50:12.354Z,21.55
2019-03-23T12:53:26.725Z,21.57
2019-03-23T12:56:40.922Z,21.56
2019-03-23T12:59:55.177Z,21.91
2019-03-23T13:03:09.322Z,22.19
2019-03-23T13:06:23.691Z,22.54
2019-03-23T13:09:38.204Z,22.86
2019-03-23T13:12:52.257Z,23.14
2019-03-23T13:16:06.855Z,23.01
2019-03-23T13:19:21.247Z,22.55
2019-03-23T13:22:35.423Z,22.16
2019-03-23T13:25:49.603Z,22.26
2019-03-23T13:29:03.928Z,22.74
2019-03-23T13:32:18.037Z,22.93
2019-03-23T13:35:32.091Z,22.88
2019-03-23T13:38:46.609Z,22.46
2019-03-23T13:42:01.270Z,21.91
2019-03-23T13:45:15.537Z,21.84
2019-03-23T13:48:29.892Z,21.92
2019-03-23T13:51:44.089Z,22.01
2019-03-23T13:54:58.660Z,21.63
2019-03-23T13:58:13.632Z,21.23
2019-03-23T14:01:28.808Z,21.83
2019-03-23T14:04:43.006Z,21.80
2019-03-23T14:07:57.299Z,21.50
2019-03-23T14:11:11.337Z,21.46
2019-03-23T14:14:25.606Z,21.71
2019-03-23T14:17:40.055Z,22.09
2019-03-23T14:20:54.276Z,22.16
2019-03-23T14:24:08.869Z,21.49
2019-03-23T14:27:23.339Z,21.19
2019-03-23T14:30:37.442Z,21.27
2019-03-23T14:33:51.867Z,21.07
2019-03-23T14:37:06.028Z,21.06
2019-03-23T14:40:20.091Z,20.88
2019-03-23T14:43:34.229Z,21.15
2019-03-23T14:46:48.373Z,21.38
2019-03-23T14:50:02.681Z,21.20
2019-03-23T14:53:16.739Z,20.52
2019-03-23T14:56:31.976Z,20.22
2019-03-23T14:59:46.265Z,19.97
2019-03-23T15:03:00.668Z,19.86
2019-03-23T15:06:15.081Z,19.84
2019-03-23T15:09:29.127Z,19.47
2019-03-23T15:12:43.500Z,19.27
2019-03-23T15:15:58.075Z,18.75
2019-03-23T15:19:12.148Z,18.65
2019-03-23T15:22:26.429Z,18.40
2019-03-23T15:25:40.758Z,17.56
2019-03-23T15:28:54.896Z,17.58
2019-03-23T15:32:08.998Z,17.28
2019-03-23T15:35:23.675Z,16.69
2019-03-23T15:38:37.960Z,16.69
2019-03-23T15:41:52.090Z,16.60
2019-03-23T15:45:08.020Z,16.53
2019-03-23T15:48:22.069Z,16.58
2019-03-23T15:51:36.335Z,16.88
2019-03-23T15:54:51.299Z,17.06
2019-03-23T15:58:05.474Z,16.99
2019-03-23T16:01:19.698Z,16.53
2019-03-23T16:04:34.375Z,16.26
2019-03-23T16:07:48.458Z,15.85
2019-03-23T16:11:02.862Z,15.34
2019-03-23T16:14:17.044Z,15.24
2019-03-23T16:17:31.184Z,14.90
2019-03-23T16:20:45.302Z,14.48
2019-03-23T16:23:59.539Z,14.08
2019-03-23T16:27:13.627Z,13.62
2019-03-23T16:30:29.406Z,13.40
2019-03-23T16:33:43.506Z,13.29
2019-03-23T16:36:57.707Z,13.05
2019-03-23T16:40:11.948Z,12.97
2019-03-23T16:43:26.412Z,12.83
2019-03-23T16:46:40.619Z,12.78
2019-03-23T16:49:54.672Z,12.54
2019-03-23T16:53:08.897Z,12.42
2019-03-23T16:56:22.943Z,12.29
2019-03-23T16:59:37.013Z,12.05
2019-03-23T17:02:51.965Z,11.99
2019-03-23T17:06:06.099Z,11.86
2019-03-23T17:09:20.441Z,11.78
2019-03-23T17:12:34.691Z,11.55
2019-03-23T17:15:49.074Z,11.27
2019-03-23T17:19:03.353Z,11.16
2019-03-23T17:22:17.722Z,11.08
2019-03-23T17:25:31.862Z,11.10
2019-03-23T17:28:45.913Z,10.98
2019-03-23T17:32:00.080Z,10.80
2019-03-23T17:35:14.173Z,10.67
2019-03-23T17:38:28.433Z,10.64
2019-03-23T17:41:43.137Z,10.48
2019-03-23T17:44:57.192Z,10.41
2019-03-23T17:48:11.452Z,10.28
2019-03-23T17:51:25.865Z,10.13
2019-03-23T17:54:39.988Z,10.03
2019-03-23T17:57:54.014Z,9.80
2019-03-23T18:01:19.037Z,9.66
2019-03-23T18:04:26.718Z,9.60
2019-03-23T18:07:41.092Z,9.45
2019-03-23T18:10:55.210Z,9.31
2019-03-23T18:14:09.827Z,9.13
2019-03-23T18:17:25.172Z,9.08
2019-03-23T18:20:39.538Z,9.00
2019-03-23T18:23:53.675Z,8.90
2019-03-23T18:27:08.131Z,8.79
2019-03-23T18:30:38.090Z,8.69
2019-03-23T18:33:52.112Z,8.59
2019-03-23T18:37:06.225Z,8.57
2019-03-23T18:40:20.353Z,8.51
2019-03-23T18:43:34.587Z,8.52
2019-03-23T18:46:49.012Z,8.43
2019-03-23T18:50:03.800Z,8.37
2019-03-23T18:53:18.354Z,8.23
2019-03-23T18:56:32.476Z,8.19
2019-03-23T18:59:47.144Z,8.12
2019-03-23T19:03:01.631Z,8.04
2019-03-23T19:06:15.659Z,7.98
2019-03-23T19:09:29.682Z,7.95
2019-03-23T19:12:43.710Z,7.96
2019-03-23T19:15:57.728Z,7.94
2019-03-23T19:19:12.147Z,7.84
2019-03-23T19:22:26.182Z,7.64
2019-03-23T19:25:40.416Z,7.41
2019-03-23T19:28:54.503Z,7.43
2019-03-23T19:32:08.520Z,7.46
2019-03-23T19:35:22.662Z,7.45
2019-03-23T19:38:36.940Z,7.38
2019-03-23T19:41:50.971Z,7.16
2019-03-23T19:45:05.460Z,7.00
2019-03-23T19:48:19.568Z,6.89
2019-03-23T19:51:33.945Z,6.83
2019-03-23T19:54:48.375Z,6.82
2019-03-23T19:58:03.943Z,6.86
2019-03-23T20:01:17.953Z,6.83
2019-03-23T20:04:32.127Z,6.75
2019-03-23T20:07:46.192Z,6.55
2019-03-23T20:11:00.476Z,6.40
2019-03-23T20:14:14.495Z,6.26
2019-03-23T20:17:28.514Z,6.24
2019-03-23T20:20:42.551Z,6.19
2019-03-23T20:23:56.664Z,6.15
2019-03-23T20:27:11.008Z,6.13
2019-03-23T20:30:25.378Z,6.11
2019-03-23T20:33:39.414Z,5.95
2019-03-23T20:36:53.622Z,5.90
2019-03-23T20:40:08.175Z,5.78
2019-03-23T20:43:22.195Z,5.67
2019-03-23T20:46:36.421Z,5.52
2019-03-23T20:49:51.817Z,5.45
2019-03-23T20:53:06.491Z,5.45
2019-03-23T20:56:20.497Z,5.29
2019-03-23T20:59:34.499Z,5.27
2019-03-23T21:02:48.636Z,5.20
2019-03-23T21:06:03.186Z,5.14
2019-03-23T21:09:17.211Z,5.11
2019-03-23T21:12:31.231Z,5.12
2019-03-23T21:15:45.234Z,5.02
2019-03-23T21:18:59.293Z,4.98
2019-03-23T21:22:13.356Z,4.98
2019-03-23T21:25:27.390Z,4.88
2019-03-23T21:28:41.706Z,4.81
2019-03-23T21:31:55.708Z,4.70
2019-03-23T21:35:10.467Z,4.65
2019-03-23T21:38:24.578Z,4.57
2019-03-23T21:41:38.614Z,4.63
2019-03-23T21:44:52.657Z,4.65
2019-03-23T21:48:06.762Z,4.64
2019-03-23T21:51:20.875Z,4.42
2019-03-23T21:54:34.894Z,4.29
2019-03-23T21:57:48.957Z,4.21
2019-03-23T22:01:03.346Z,4.08
2019-03-23T22:04:17.557Z,4.02
2019-03-23T22:07:31.559Z,4.07
2019-03-23T22:10:45.579Z,4.09
2019-03-23T22:13:59.633Z,3.92
2019-03-23T22:17:13.751Z,3.89
2019-03-23T22:20:27.767Z,3.86
2019-03-23T22:23:42.267Z,3.78
2019-03-23T22:26:56.679Z,3.80
2019-03-23T22:30:11.605Z,3.76
2019-03-23T22:33:25.615Z,3.75
2019-03-23T22:36:39.618Z,3.62
2019-03-23T22:39:53.616Z,3.46
2019-03-23T22:43:08.034Z,3.45
2019-03-23T22:46:22.042Z,3.41
2019-03-23T22:49:36.050Z,3.46
2019-03-23T22:52:50.056Z,3.28
2019-03-23T22:56:04.196Z,3.20
2019-03-23T22:59:18.198Z,3.24
2019-03-23T23:02:32.314Z,3.31
2019-03-23T23:05:46.527Z,3.30
2019-03-23T23:09:00.549Z,3.24
2019-03-23T23:12:14.931Z,3.30
2019-03-23T23:15:28.932Z,3.35
2019-03-23T23:18:42.978Z,3.21
2019-03-23T23:21:57.011Z,3.10
2019-03-23T23:25:11.409Z,3.06
2019-03-23T23:28:25.812Z,3.01
2019-03-23T23:31:40.123Z,2.95
2019-03-23T23:34:54.330Z,2.92
2019-03-23T23:38:08.563Z,2.81
2019-03-23T23:41:22.675Z,2.80
2019-03-23T23:44:37.072Z,2.82
2019-03-23T23:47:51.527Z,2.78
2019-03-23T23:51:06.080Z,2.90
2019-03-23T23:54:20.093Z,2.89
2019-03-23T23:57:34.647Z,2.85
